sensor_id;sensor_type;location;lat;lon;timestamp;temperature;humidity
39779;DHT22;25454;49.878;8.618;2023-06-05T00:04:31;15.90;61.30
39779;DHT22;25454;49.878;8.618;2023-06-05T00:09:31;15.80;61.60
39779;DHT22;25454;49.878;8.618;2023-06-05T00:14:32;15.80;62.00
39779;DHT22;25454;49.878;8.618;2023-06-05T00:19:32;15.70;62.00
39779;DHT22;25454;49.878;8.618;2023-06-05T00:24:34;15.70;62.30
39779;DHT22;25454;49.878;8.618;2023-06-05T00:29:35;15.60;62.40
39779;DHT22;25454;49.878;8.618;2023-06-05T00:34:36;15.50;62.50
39779;DHT22;25454;49.878;8.618;2023-06-05T00:39:36;15.50;62.70
39779;DHT22;25454;49.878;8.618;2023-06-05T00:44:37;15.50;63.00
39779;DHT22;25454;49.878;8.618;2023-06-05T00:49:37;15.40;63.20
39779;DHT22;25454;49.878;8.618;2023-06-05T00:54:39;15.30;63.00
39779;DHT22;25454;49.878;8.618;2023-06-05T00:59:40;15.30;63.00
39779;DHT22;25454;49.878;8.618;2023-06-05T01:04:45;15.20;63.30
39779;DHT22;25454;49.878;8.618;2023-06-05T01:09:47;15.10;63.30
39779;DHT22;25454;49.878;8.618;2023-06-05T01:14:48;15.20;62.70
39779;DHT22;25454;49.878;8.618;2023-06-05T01:19:50;15.20;62.20
39779;DHT22;25454;49.878;8.618;2023-06-05T01:24:51;15.20;62.20
39779;DHT22;25454;49.878;8.618;2023-06-05T01:30:24;15.20;62.00
39779;DHT22;25454;49.878;8.618;2023-06-05T01:35:31;15.10;62.30
39779;DHT22;25454;49.878;8.618;2023-06-05T01:40:34;15.00;62.70
39779;DHT22;25454;49.878;8.618;2023-06-05T01:45:36;14.90;62.60
39779;DHT22;25454;49.878;8.618;2023-06-05T01:50:40;14.90;62.80
39779;DHT22;25454;49.878;8.618;2023-06-05T01:55:42;15.00;62.20
39779;DHT22;25454;49.878;8.618;2023-06-05T02:00:44;15.00;61.90
39779;DHT22;25454;49.878;8.618;2023-06-05T02:05:46;15.00;60.80
39779;DHT22;25454;49.878;8.618;2023-06-05T02:10:46;15.00;60.90
39779;DHT22;25454;49.878;8.618;2023-06-05T02:15:47;15.00;60.60
39779;DHT22;25454;49.878;8.618;2023-06-05T02:20:53;15.00;60.50
39779;DHT22;25454;49.878;8.618;2023-06-05T02:25:54;15.00;60.40
39779;DHT22;25454;49.878;8.618;2023-06-05T02:31:00;15.00;60.80
39779;DHT22;25454;49.878;8.618;2023-06-05T02:36:01;14.90;61.00
39779;DHT22;25454;49.878;8.618;2023-06-05T02:41:02;14.90;61.30
39779;DHT22;25454;49.878;8.618;2023-06-05T02:46:03;14.80;61.60
39779;DHT22;25454;49.878;8.618;2023-06-05T02:51:03;14.70;62.20
39779;DHT22;25454;49.878;8.618;2023-06-05T02:56:04;14.60;62.60
39779;DHT22;25454;49.878;8.618;2023-06-05T03:01:05;14.50;63.00
39779;DHT22;25454;49.878;8.618;2023-06-05T03:06:08;14.40;63.60
39779;DHT22;25454;49.878;8.618;2023-06-05T03:11:09;14.40;63.70
39779;DHT22;25454;49.878;8.618;2023-06-05T03:16:09;14.40;63.70
39779;DHT22;25454;49.878;8.618;2023-06-05T03:21:11;14.40;63.80
39779;DHT22;25454;49.878;8.618;2023-06-05T03:26:12;14.40;63.90
39779;DHT22;25454;49.878;8.618;2023-06-05T03:31:12;14.30;64.00
39779;DHT22;25454;49.878;8.618;2023-06-05T03:36:13;14.30;64.40
39779;DHT22;25454;49.878;8.618;2023-06-05T03:41:17;14.30;64.50
39779;DHT22;25454;49.878;8.618;2023-06-05T03:46:18;14.30;64.50
39779;DHT22;25454;49.878;8.618;2023-06-05T03:51:19;14.30;65.00
39779;DHT22;25454;49.878;8.618;2023-06-05T03:56:20;14.30;65.00
39779;DHT22;25454;49.878;8.618;2023-06-05T04:01:22;14.40;64.70
39779;DHT22;25454;49.878;8.618;2023-06-05T04:06:22;14.50;64.60
39779;DHT22;25454;49.878;8.618;2023-06-05T04:11:23;14.60;64.70
39779;DHT22;25454;49.878;8.618;2023-06-05T04:16:27;14.70;64.50
39779;DHT22;25454;49.878;8.618;2023-06-05T04:21:29;14.80;64.70
39779;DHT22;25454;49.878;8.618;2023-06-05T04:26:30;14.90;64.20
39779;DHT22;25454;49.878;8.618;2023-06-05T04:31:30;15.00;65.30
39779;DHT22;25454;49.878;8.618;2023-06-05T04:36:34;15.10;63.60
39779;DHT22;25454;49.878;8.618;2023-06-05T04:41:35;15.30;63.50
39779;DHT22;25454;49.878;8.618;2023-06-05T04:46:40;15.40;62.60
39779;DHT22;25454;49.878;8.618;2023-06-05T04:51:46;15.40;63.00
39779;DHT22;25454;49.878;8.618;2023-06-05T04:56:47;15.40;63.30
39779;DHT22;25454;49.878;8.618;2023-06-05T05:01:50;15.50;62.90
39779;DHT22;25454;49.878;8.618;2023-06-05T05:06:50;16.80;60.80
39779;DHT22;25454;49.878;8.618;2023-06-05T05:11:52;19.50;55.10
39779;DHT22;25454;49.878;8.618;2023-06-05T05:16:53;21.00;51.40
39779;DHT22;25454;49.878;8.618;2023-06-05T05:21:55;22.20;48.90
39779;DHT22;25454;49.878;8.618;2023-06-05T05:26:56;23.30;46.60
39779;DHT22;25454;49.878;8.618;2023-06-05T05:31:56;24.00;45.50
39779;DHT22;25454;49.878;8.618;2023-06-05T05:36:57;23.90;45.30
39779;DHT22;25454;49.878;8.618;2023-06-05T05:41:57;24.00;44.80
39779;DHT22;25454;49.878;8.618;2023-06-05T05:47:00;24.50;43.70
39779;DHT22;25454;49.878;8.618;2023-06-05T05:52:00;24.70;43.20
39779;DHT22;25454;49.878;8.618;2023-06-05T05:57:01;25.20;42.90
39779;DHT22;25454;49.878;8.618;2023-06-05T06:02:01;25.40;41.90
39779;DHT22;25454;49.878;8.618;2023-06-05T06:07:08;25.70;42.20
39779;DHT22;25454;49.878;8.618;2023-06-05T06:12:09;25.60;41.80
39779;DHT22;25454;49.878;8.618;2023-06-05T06:17:10;26.30;40.60
39779;DHT22;25454;49.878;8.618;2023-06-05T06:22:11;26.60;40.20
39779;DHT22;25454;49.878;8.618;2023-06-05T06:27:12;26.50;39.90
39779;DHT22;25454;49.878;8.618;2023-06-05T06:32:14;26.90;40.50
39779;DHT22;25454;49.878;8.618;2023-06-05T06:37:15;27.00;39.80
39779;DHT22;25454;49.878;8.618;2023-06-05T06:42:15;27.30;39.40
39779;DHT22;25454;49.878;8.618;2023-06-05T06:47:16;27.40;39.20
39779;DHT22;25454;49.878;8.618;2023-06-05T06:52:17;28.40;38.80
39779;DHT22;25454;49.878;8.618;2023-06-05T06:57:20;28.80;37.30
39779;DHT22;25454;49.878;8.618;2023-06-05T07:02:23;29.60;36.70
39779;DHT22;25454;49.878;8.618;2023-06-05T07:07:24;29.50;36.20
39779;DHT22;25454;49.878;8.618;2023-06-05T07:12:25;29.20;36.40
39779;DHT22;25454;49.878;8.618;2023-06-05T07:17:26;29.00;36.40
39779;DHT22;25454;49.878;8.618;2023-06-05T07:22:29;28.80;37.00
39779;DHT22;25454;49.878;8.618;2023-06-05T07:27:30;29.60;36.50
39779;DHT22;25454;49.878;8.618;2023-06-05T07:32:31;29.60;35.60
39779;DHT22;25454;49.878;8.618;2023-06-05T07:37:31;29.90;35.60
39779;DHT22;25454;49.878;8.618;2023-06-05T07:42:32;30.00;35.90
39779;DHT22;25454;49.878;8.618;2023-06-05T07:47:33;29.90;35.10
39779;DHT22;25454;49.878;8.618;2023-06-05T07:52:38;30.90;34.80
39779;DHT22;25454;49.878;8.618;2023-06-05T07:57:39;31.30;34.60
39779;DHT22;25454;49.878;8.618;2023-06-05T08:02:40;31.70;33.90
39779;DHT22;25454;49.878;8.618;2023-06-05T08:07:41;32.60;33.50
39779;DHT22;25454;49.878;8.618;2023-06-05T08:12:42;32.80;33.10
39779;DHT22;25454;49.878;8.618;2023-06-05T08:17:42;32.60;33.30
39779;DHT22;25454;49.878;8.618;2023-06-05T08:22:43;32.80;33.20
39779;DHT22;25454;49.878;8.618;2023-06-05T08:27:44;33.30;32.20
39779;DHT22;25454;49.878;8.618;2023-06-05T08:32:44;32.70;32.80
39779;DHT22;25454;49.878;8.618;2023-06-05T08:37:46;32.70;32.90
39779;DHT22;25454;49.878;8.618;2023-06-05T08:42:46;33.20;32.60
39779;DHT22;25454;49.878;8.618;2023-06-05T08:47:50;33.70;32.00
39779;DHT22;25454;49.878;8.618;2023-06-05T08:52:51;34.90;31.30
39779;DHT22;25454;49.878;8.618;2023-06-05T08:57:53;34.30;32.30
39779;DHT22;25454;49.878;8.618;2023-06-05T09:02:54;34.40;32.60
39779;DHT22;25454;49.878;8.618;2023-06-05T09:07:56;34.60;32.50
39779;DHT22;25454;49.878;8.618;2023-06-05T09:12:59;33.50;33.40
39779;DHT22;25454;49.878;8.618;2023-06-05T09:18:15;34.70;32.70
39779;DHT22;25454;49.878;8.618;2023-06-05T09:23:26;35.40;31.90
39779;DHT22;25454;49.878;8.618;2023-06-05T09:28:29;36.10;31.20
39779;DHT22;25454;49.878;8.618;2023-06-05T09:33:32;36.00;31.50
39779;DHT22;25454;49.878;8.618;2023-06-05T09:38:36;36.90;30.90
39779;DHT22;25454;49.878;8.618;2023-06-05T09:43:38;37.70;30.50
39779;DHT22;25454;49.878;8.618;2023-06-05T09:48:40;35.10;30.30
39779;DHT22;25454;49.878;8.618;2023-06-05T09:53:45;35.70;30.80
39779;DHT22;25454;49.878;8.618;2023-06-05T09:58:51;36.20;30.10
39779;DHT22;25454;49.878;8.618;2023-06-05T10:04:00;36.90;29.80
39779;DHT22;25454;49.878;8.618;2023-06-05T10:09:03;35.80;30.30
39779;DHT22;25454;49.878;8.618;2023-06-05T10:14:05;36.10;29.00
39779;DHT22;25454;49.878;8.618;2023-06-05T10:19:07;36.80;29.00
39779;DHT22;25454;49.878;8.618;2023-06-05T10:24:12;37.70;27.70
39779;DHT22;25454;49.878;8.618;2023-06-05T10:35:16;38.80;27.60
39779;DHT22;25454;49.878;8.618;2023-06-05T10:40:11;37.40;27.90
39779;DHT22;25454;49.878;8.618;2023-06-05T10:45:12;36.40;28.00
39779;DHT22;25454;49.878;8.618;2023-06-05T10:55:16;37.50;28.10
39779;DHT22;25454;49.878;8.618;2023-06-05T11:00:17;39.50;26.50
39779;DHT22;25454;49.878;8.618;2023-06-05T11:05:18;41.80;25.00
39779;DHT22;25454;49.878;8.618;2023-06-05T11:10:22;41.10;23.90
39779;DHT22;25454;49.878;8.618;2023-06-05T11:25:25;39.50;25.30
39779;DHT22;25454;49.878;8.618;2023-06-05T11:30:43;38.20;26.10
39779;DHT22;25454;49.878;8.618;2023-06-05T11:35:45;38.10;25.90
39779;DHT22;25454;49.878;8.618;2023-06-05T11:40:46;36.00;27.50
39779;DHT22;25454;49.878;8.618;2023-06-05T11:45:55;34.80;29.10
39779;DHT22;25454;49.878;8.618;2023-06-05T11:51:02;33.10;30.80
39779;DHT22;25454;49.878;8.618;2023-06-05T11:56:12;31.40;32.20
39779;DHT22;25454;49.878;8.618;2023-06-05T12:01:17;30.30;33.00
39779;DHT22;25454;49.878;8.618;2023-06-05T12:06:18;30.00;33.20
39779;DHT22;25454;49.878;8.618;2023-06-05T12:11:25;30.20;34.00
39779;DHT22;25454;49.878;8.618;2023-06-05T12:16:37;30.30;33.50
39779;DHT22;25454;49.878;8.618;2023-06-05T12:21:38;30.70;33.10
39779;DHT22;25454;49.878;8.618;2023-06-05T12:26:58;30.50;32.90
39779;DHT22;25454;49.878;8.618;2023-06-05T12:32:03;29.70;34.10
39779;DHT22;25454;49.878;8.618;2023-06-05T12:37:29;29.00;34.90
39779;DHT22;25454;49.878;8.618;2023-06-05T12:42:34;28.40;35.80
39779;DHT22;25454;49.878;8.618;2023-06-05T12:47:42;28.20;35.50
39779;DHT22;25454;49.878;8.618;2023-06-05T12:52:44;28.10;35.60
39779;DHT22;25454;49.878;8.618;2023-06-05T12:57:45;28.40;35.30
39779;DHT22;25454;49.878;8.618;2023-06-05T13:02:45;29.20;35.50
39779;DHT22;25454;49.878;8.618;2023-06-05T13:07:47;29.60;36.20
39779;DHT22;25454;49.878;8.618;2023-06-05T13:12:55;29.40;35.60
39779;DHT22;25454;49.878;8.618;2023-06-05T13:17:55;29.20;35.50
39779;DHT22;25454;49.878;8.618;2023-06-05T13:22:56;29.10;36.10
39779;DHT22;25454;49.878;8.618;2023-06-05T13:27:56;29.00;34.30
39779;DHT22;25454;49.878;8.618;2023-06-05T13:32:57;28.90;33.90
39779;DHT22;25454;49.878;8.618;2023-06-05T13:37:57;29.20;35.00
39779;DHT22;25454;49.878;8.618;2023-06-05T13:42:59;29.10;35.50
39779;DHT22;25454;49.878;8.618;2023-06-05T13:47:59;28.70;35.10
39779;DHT22;25454;49.878;8.618;2023-06-05T13:53:00;28.60;35.10
39779;DHT22;25454;49.878;8.618;2023-06-05T13:58:00;28.80;35.10
39779;DHT22;25454;49.878;8.618;2023-06-05T14:03:02;28.90;34.70
39779;DHT22;25454;49.878;8.618;2023-06-05T14:08:03;29.20;34.80
39779;DHT22;25454;49.878;8.618;2023-06-05T14:13:06;29.30;34.60
39779;DHT22;25454;49.878;8.618;2023-06-05T14:18:07;29.50;34.70
39779;DHT22;25454;49.878;8.618;2023-06-05T14:23:09;29.20;34.90
39779;DHT22;25454;49.878;8.618;2023-06-05T14:28:11;28.90;35.40
39779;DHT22;25454;49.878;8.618;2023-06-05T14:33:12;29.10;35.10
39779;DHT22;25454;49.878;8.618;2023-06-05T14:38:12;28.40;35.10
39779;DHT22;25454;49.878;8.618;2023-06-05T14:43:13;28.20;36.20
39779;DHT22;25454;49.878;8.618;2023-06-05T14:48:14;27.60;36.70
39779;DHT22;25454;49.878;8.618;2023-06-05T14:53:14;27.70;37.20
39779;DHT22;25454;49.878;8.618;2023-06-05T14:58:15;27.80;37.10
39779;DHT22;25454;49.878;8.618;2023-06-05T15:03:19;28.20;36.80
39779;DHT22;25454;49.878;8.618;2023-06-05T15:08:23;28.10;36.70
39779;DHT22;25454;49.878;8.618;2023-06-05T15:13:23;28.10;37.50
39779;DHT22;25454;49.878;8.618;2023-06-05T15:18:24;27.80;37.20
39779;DHT22;25454;49.878;8.618;2023-06-05T15:23:25;27.10;38.10
39779;DHT22;25454;49.878;8.618;2023-06-05T15:28:26;27.10;38.90
39779;DHT22;25454;49.878;8.618;2023-06-05T15:33:26;27.20;38.50
39779;DHT22;25454;49.878;8.618;2023-06-05T15:38:27;27.20;38.70
39779;DHT22;25454;49.878;8.618;2023-06-05T15:43:28;27.10;38.50
39779;DHT22;25454;49.878;8.618;2023-06-05T15:48:28;27.00;38.30
39779;DHT22;25454;49.878;8.618;2023-06-05T15:53:29;26.90;38.30
39779;DHT22;25454;49.878;8.618;2023-06-05T15:58:29;27.00;38.30
39779;DHT22;25454;49.878;8.618;2023-06-05T16:03:30;26.90;38.50
39779;DHT22;25454;49.878;8.618;2023-06-05T16:08:30;27.00;39.00
39779;DHT22;25454;49.878;8.618;2023-06-05T16:13:31;26.90;38.50
39779;DHT22;25454;49.878;8.618;2023-06-05T16:18:35;26.90;39.60
39779;DHT22;25454;49.878;8.618;2023-06-05T16:23:38;26.80;39.00
39779;DHT22;25454;49.878;8.618;2023-06-05T16:28:39;26.70;38.50
39779;DHT22;25454;49.878;8.618;2023-06-05T16:33:40;26.70;39.70
39779;DHT22;25454;49.878;8.618;2023-06-05T16:38:41;26.50;39.50
39779;DHT22;25454;49.878;8.618;2023-06-05T16:43:41;26.40;40.00
39779;DHT22;25454;49.878;8.618;2023-06-05T16:48:42;26.40;38.90
39779;DHT22;25454;49.878;8.618;2023-06-05T16:53:43;26.30;40.00
39779;DHT22;25454;49.878;8.618;2023-06-05T16:58:43;26.10;40.20
39779;DHT22;25454;49.878;8.618;2023-06-05T17:03:44;26.00;40.00
39779;DHT22;25454;49.878;8.618;2023-06-05T17:08:45;25.90;40.00
39779;DHT22;25454;49.878;8.618;2023-06-05T17:13:46;25.90;40.10
39779;DHT22;25454;49.878;8.618;2023-06-05T17:18:46;25.80;40.60
39779;DHT22;25454;49.878;8.618;2023-06-05T17:23:47;25.70;40.40
39779;DHT22;25454;49.878;8.618;2023-06-05T17:28:51;25.50;39.80
39779;DHT22;25454;49.878;8.618;2023-06-05T17:33:59;25.40;39.90
39779;DHT22;25454;49.878;8.618;2023-06-05T17:38:59;25.20;39.80
39779;DHT22;25454;49.878;8.618;2023-06-05T17:44:01;25.20;39.90
39779;DHT22;25454;49.878;8.618;2023-06-05T17:49:01;25.10;40.60
39779;DHT22;25454;49.878;8.618;2023-06-05T17:54:02;25.10;41.00
39779;DHT22;25454;49.878;8.618;2023-06-05T17:59:03;25.00;41.20
39779;DHT22;25454;49.878;8.618;2023-06-05T18:04:04;24.90;41.70
39779;DHT22;25454;49.878;8.618;2023-06-05T18:09:05;24.80;41.80
39779;DHT22;25454;49.878;8.618;2023-06-05T18:14:05;24.60;41.60
39779;DHT22;25454;49.878;8.618;2023-06-05T18:19:06;24.50;42.10
39779;DHT22;25454;49.878;8.618;2023-06-05T18:24:07;24.40;42.10
39779;DHT22;25454;49.878;8.618;2023-06-05T18:29:08;24.30;42.60
39779;DHT22;25454;49.878;8.618;2023-06-05T18:34:12;24.20;42.10
39779;DHT22;25454;49.878;8.618;2023-06-05T18:39:13;24.10;42.70
39779;DHT22;25454;49.878;8.618;2023-06-05T18:44:14;23.90;43.00
39779;DHT22;25454;49.878;8.618;2023-06-05T18:49:14;23.80;43.70
39779;DHT22;25454;49.878;8.618;2023-06-05T18:54:15;23.70;43.70
39779;DHT22;25454;49.878;8.618;2023-06-05T18:59:16;23.50;43.80
39779;DHT22;25454;49.878;8.618;2023-06-05T19:04:17;23.30;43.80
39779;DHT22;25454;49.878;8.618;2023-06-05T19:09:18;23.20;44.30
39779;DHT22;25454;49.878;8.618;2023-06-05T19:14:19;23.00;44.90
39779;DHT22;25454;49.878;8.618;2023-06-05T19:19:21;22.80;45.00
39779;DHT22;25454;49.878;8.618;2023-06-05T19:24:24;22.70;45.80
39779;DHT22;25454;49.878;8.618;2023-06-05T19:29:25;22.50;46.30
39779;DHT22;25454;49.878;8.618;2023-06-05T19:34:25;22.40;47.20
39779;DHT22;25454;49.878;8.618;2023-06-05T19:39:26;22.20;47.10
39779;DHT22;25454;49.878;8.618;2023-06-05T19:44:28;22.10;47.70
39779;DHT22;25454;49.878;8.618;2023-06-05T19:49:28;22.00;48.00
39779;DHT22;25454;49.878;8.618;2023-06-05T19:54:29;21.90;48.50
39779;DHT22;25454;49.878;8.618;2023-06-05T19:59:29;21.90;48.50
39779;DHT22;25454;49.878;8.618;2023-06-05T20:04:30;21.80;48.80
39779;DHT22;25454;49.878;8.618;2023-06-05T20:09:31;21.70;49.40
39779;DHT22;25454;49.878;8.618;2023-06-05T20:14:32;21.70;49.80
39779;DHT22;25454;49.878;8.618;2023-06-05T20:19:33;21.60;50.40
39779;DHT22;25454;49.878;8.618;2023-06-05T20:24:34;21.50;50.80
39779;DHT22;25454;49.878;8.618;2023-06-05T20:29:35;21.50;51.20
39779;DHT22;25454;49.878;8.618;2023-06-05T20:34:36;21.40;51.70
39779;DHT22;25454;49.878;8.618;2023-06-05T20:39:36;21.40;52.30
39779;DHT22;25454;49.878;8.618;2023-06-05T20:44:41;21.40;52.40
39779;DHT22;25454;49.878;8.618;2023-06-05T20:49:41;21.40;52.70
39779;DHT22;25454;49.878;8.618;2023-06-05T20:54:42;21.30;52.90
39779;DHT22;25454;49.878;8.618;2023-06-05T20:59:45;21.20;53.30
39779;DHT22;25454;49.878;8.618;2023-06-05T21:04:46;21.20;54.00
39779;DHT22;25454;49.878;8.618;2023-06-05T21:09:49;21.00;54.60
39779;DHT22;25454;49.878;8.618;2023-06-05T21:14:50;21.00;55.20
39779;DHT22;25454;49.878;8.618;2023-06-05T21:19:52;20.90;55.70
39779;DHT22;25454;49.878;8.618;2023-06-05T21:24:53;20.80;56.10
39779;DHT22;25454;49.878;8.618;2023-06-05T21:29:54;20.70;56.70
39779;DHT22;25454;49.878;8.618;2023-06-05T21:34:54;20.60;57.20
39779;DHT22;25454;49.878;8.618;2023-06-05T21:39:57;20.60;57.60
39779;DHT22;25454;49.878;8.618;2023-06-05T21:44:57;20.50;58.00
39779;DHT22;25454;49.878;8.618;2023-06-05T21:49:58;20.50;58.50
39779;DHT22;25454;49.878;8.618;2023-06-05T21:54:59;20.40;59.00
39779;DHT22;25454;49.878;8.618;2023-06-05T22:00:00;20.30;59.60
39779;DHT22;25454;49.878;8.618;2023-06-05T22:05:00;20.30;60.20
39779;DHT22;25454;49.878;8.618;2023-06-05T22:10:05;20.20;60.80
39779;DHT22;25454;49.878;8.618;2023-06-05T22:15:06;20.10;61.60
39779;DHT22;25454;49.878;8.618;2023-06-05T22:20:09;20.00;62.90
39779;DHT22;25454;49.878;8.618;2023-06-05T22:25:10;20.00;64.10
39779;DHT22;25454;49.878;8.618;2023-06-05T22:30:11;20.00;65.30
39779;DHT22;25454;49.878;8.618;2023-06-05T22:35:11;19.90;66.70
39779;DHT22;25454;49.878;8.618;2023-06-05T22:40:14;19.80;67.90
39779;DHT22;25454;49.878;8.618;2023-06-05T22:45:15;19.70;69.30
39779;DHT22;25454;49.878;8.618;2023-06-05T22:50:16;19.70;70.10
39779;DHT22;25454;49.878;8.618;2023-06-05T22:55:17;19.60;71.00
39779;DHT22;25454;49.878;8.618;2023-06-05T23:00:18;19.50;71.50
39779;DHT22;25454;49.878;8.618;2023-06-05T23:05:20;19.40;72.00
39779;DHT22;25454;49.878;8.618;2023-06-05T23:10:21;19.40;72.70
39779;DHT22;25454;49.878;8.618;2023-06-05T23:15:21;19.30;73.20
39779;DHT22;25454;49.878;8.618;2023-06-05T23:20:22;19.20;73.80
39779;DHT22;25454;49.878;8.618;2023-06-05T23:25:23;19.10;74.30
39779;DHT22;25454;49.878;8.618;2023-06-05T23:30:25;19.10;74.80
39779;DHT22;25454;49.878;8.618;2023-06-05T23:35:26;19.10;75.20
39779;DHT22;25454;49.878;8.618;2023-06-05T23:40:26;19.00;75.60
39779;DHT22;25454;49.878;8.618;2023-06-05T23:45:31;19.00;75.90
39779;DHT22;25454;49.878;8.618;2023-06-05T23:50:32;19.00;76.10
39779;DHT22;25454;49.878;8.618;2023-06-05T23:55:33;18.90;76.30
